sensor_id;sensor_type;location;lat;lon;timestamp;temperature;humidity
21559;DHT22;10940;48.890;8.240;2022-09-30T00:00:57;9.60;99.90
21559;DHT22;10940;48.890;8.240;2022-09-30T00:03:23;9.60;99.90
21559;DHT22;10940;48.890;8.240;2022-09-30T00:05:56;9.60;99.90
21559;DHT22;10940;48.890;8.240;2022-09-30T00:08:21;9.60;99.90
21559;DHT22;10940;48.890;8.240;2022-09-30T00:10:47;9.60;99.90
21559;DHT22;10940;48.890;8.240;2022-09-30T00:13:22;9.60;99.90
21559;DHT22;10940;48.890;8.240;2022-09-30T00:15:47;9.60;99.90
21559;DHT22;10940;48.890;8.240;2022-09-30T00:18:13;9.50;99.90
21559;DHT22;10940;48.890;8.240;2022-09-30T00:20:38;9.50;99.90
21559;DHT22;10940;48.890;8.240;2022-09-30T00:23:04;9.50;99.90
21559;DHT22;10940;48.890;8.240;2022-09-30T00:25:30;9.50;99.90
21559;DHT22;10940;48.890;8.240;2022-09-30T00:27:55;9.50;99.90
21559;DHT22;10940;48.890;8.240;2022-09-30T00:30:21;9.50;99.90
21559;DHT22;10940;48.890;8.240;2022-09-30T00:32:46;9.50;99.90
21559;DHT22;10940;48.890;8.240;2022-09-30T00:35:12;9.40;99.90
21559;DHT22;10940;48.890;8.240;2022-09-30T00:37:38;9.40;99.90
21559;DHT22;10940;48.890;8.240;2022-09-30T00:40:03;9.40;99.90
21559;DHT22;10940;48.890;8.240;2022-09-30T00:42:29;9.40;99.90
21559;DHT22;10940;48.890;8.240;2022-09-30T00:45:09;9.40;99.90
21559;DHT22;10940;48.890;8.240;2022-09-30T00:47:39;9.30;99.90
21559;DHT22;10940;48.890;8.240;2022-09-30T00:52:43;9.30;99.90
21559;DHT22;10940;48.890;8.240;2022-09-30T00:55:26;9.20;99.90
21559;DHT22;10940;48.890;8.240;2022-09-30T00:57:55;9.10;99.90
21559;DHT22;10940;48.890;8.240;2022-09-30T01:00:21;9.10;99.90
21559;DHT22;10940;48.890;8.240;2022-09-30T01:02:47;9.00;99.90
21559;DHT22;10940;48.890;8.240;2022-09-30T01:05:14;9.00;99.90
21559;DHT22;10940;48.890;8.240;2022-09-30T01:07:39;8.90;99.90
21559;DHT22;10940;48.890;8.240;2022-09-30T01:10:05;8.90;99.90
21559;DHT22;10940;48.890;8.240;2022-09-30T01:12:31;8.90;99.90
21559;DHT22;10940;48.890;8.240;2022-09-30T01:14:58;8.90;99.90
21559;DHT22;10940;48.890;8.240;2022-09-30T01:17:47;8.80;99.90
21559;DHT22;10940;48.890;8.240;2022-09-30T01:20:31;8.80;99.90
21559;DHT22;10940;48.890;8.240;2022-09-30T01:29:00;8.80;99.90
21559;DHT22;10940;48.890;8.240;2022-09-30T01:31:47;8.80;99.90
21559;DHT22;10940;48.890;8.240;2022-09-30T01:34:37;8.80;99.90
21559;DHT22;10940;48.890;8.240;2022-09-30T01:40:36;8.90;99.90
21559;DHT22;10940;48.890;8.240;2022-09-30T01:45:46;8.80;99.90
21559;DHT22;10940;48.890;8.240;2022-09-30T01:48:21;8.80;99.90
21559;DHT22;10940;48.890;8.240;2022-09-30T01:51:00;8.80;99.90
21559;DHT22;10940;48.890;8.240;2022-09-30T01:53:36;8.80;99.90
21559;DHT22;10940;48.890;8.240;2022-09-30T01:56:18;8.80;99.90
21559;DHT22;10940;48.890;8.240;2022-09-30T01:59:05;8.80;99.90
21559;DHT22;10940;48.890;8.240;2022-09-30T02:01:48;8.80;99.90
21559;DHT22;10940;48.890;8.240;2022-09-30T02:04:30;8.80;99.90
21559;DHT22;10940;48.890;8.240;2022-09-30T02:07:01;8.80;99.90
21559;DHT22;10940;48.890;8.240;2022-09-30T02:09:41;8.80;99.90
21559;DHT22;10940;48.890;8.240;2022-09-30T02:12:12;8.80;99.90
21559;DHT22;10940;48.890;8.240;2022-09-30T02:14:43;8.80;99.90
21559;DHT22;10940;48.890;8.240;2022-09-30T02:17:23;8.90;99.90
21559;DHT22;10940;48.890;8.240;2022-09-30T02:20:03;8.90;99.90
21559;DHT22;10940;48.890;8.240;2022-09-30T02:22:41;8.90;99.90
21559;DHT22;10940;48.890;8.240;2022-09-30T02:25:17;8.90;99.90
21559;DHT22;10940;48.890;8.240;2022-09-30T02:27:49;8.90;99.90
21559;DHT22;10940;48.890;8.240;2022-09-30T02:30:17;8.90;99.90
21559;DHT22;10940;48.890;8.240;2022-09-30T02:32:52;9.00;99.90
21559;DHT22;10940;48.890;8.240;2022-09-30T02:35:33;9.00;99.90
21559;DHT22;10940;48.890;8.240;2022-09-30T02:38:16;9.00;99.90
21559;DHT22;10940;48.890;8.240;2022-09-30T02:43:15;9.10;99.90
21559;DHT22;10940;48.890;8.240;2022-09-30T02:45:58;9.10;99.90
21559;DHT22;10940;48.890;8.240;2022-09-30T02:48:33;9.10;99.90
21559;DHT22;10940;48.890;8.240;2022-09-30T02:51:12;9.20;99.90
21559;DHT22;10940;48.890;8.240;2022-09-30T02:53:48;9.10;99.90
21559;DHT22;10940;48.890;8.240;2022-09-30T02:56:32;9.10;99.90
21559;DHT22;10940;48.890;8.240;2022-09-30T02:59:03;9.10;99.90
21559;DHT22;10940;48.890;8.240;2022-09-30T03:01:29;9.10;99.90
21559;DHT22;10940;48.890;8.240;2022-09-30T03:04:20;9.20;99.90
21559;DHT22;10940;48.890;8.240;2022-09-30T03:06:43;9.10;99.90
21559;DHT22;10940;48.890;8.240;2022-09-30T03:09:09;9.10;99.90
21559;DHT22;10940;48.890;8.240;2022-09-30T03:11:35;9.10;99.90
21559;DHT22;10940;48.890;8.240;2022-09-30T03:22:16;9.00;99.90
21559;DHT22;10940;48.890;8.240;2022-09-30T03:24:58;9.00;99.90
21559;DHT22;10940;48.890;8.240;2022-09-30T03:30:15;9.00;99.90
21559;DHT22;10940;48.890;8.240;2022-09-30T03:35:28;9.00;99.90
21559;DHT22;10940;48.890;8.240;2022-09-30T03:38:10;9.00;99.90
21559;DHT22;10940;48.890;8.240;2022-09-30T03:43:25;9.00;99.90
21559;DHT22;10940;48.890;8.240;2022-09-30T03:46:00;9.00;99.90
21559;DHT22;10940;48.890;8.240;2022-09-30T03:48:31;9.00;99.90
21559;DHT22;10940;48.890;8.240;2022-09-30T03:50:58;9.00;99.90
21559;DHT22;10940;48.890;8.240;2022-09-30T03:53:25;9.00;99.90
21559;DHT22;10940;48.890;8.240;2022-09-30T03:55:52;9.00;99.90
21559;DHT22;10940;48.890;8.240;2022-09-30T03:58:20;9.00;99.90
21559;DHT22;10940;48.890;8.240;2022-09-30T04:00:52;9.00;99.90
21559;DHT22;10940;48.890;8.240;2022-09-30T04:03:20;9.10;99.90
21559;DHT22;10940;48.890;8.240;2022-09-30T04:05:46;9.10;99.90
21559;DHT22;10940;48.890;8.240;2022-09-30T04:08:12;9.10;99.90
21559;DHT22;10940;48.890;8.240;2022-09-30T04:10:39;9.10;99.90
21559;DHT22;10940;48.890;8.240;2022-09-30T04:13:06;9.10;99.90
21559;DHT22;10940;48.890;8.240;2022-09-30T04:15:31;9.10;99.90
21559;DHT22;10940;48.890;8.240;2022-09-30T04:17:57;9.10;99.90
21559;DHT22;10940;48.890;8.240;2022-09-30T04:20:23;9.10;99.90
21559;DHT22;10940;48.890;8.240;2022-09-30T04:22:49;9.20;99.90
21559;DHT22;10940;48.890;8.240;2022-09-30T04:25:14;9.20;99.90
21559;DHT22;10940;48.890;8.240;2022-09-30T04:27:40;9.20;99.90
21559;DHT22;10940;48.890;8.240;2022-09-30T04:30:06;9.20;99.90
21559;DHT22;10940;48.890;8.240;2022-09-30T04:32:32;9.20;99.90
21559;DHT22;10940;48.890;8.240;2022-09-30T04:34:57;9.20;99.90
21559;DHT22;10940;48.890;8.240;2022-09-30T04:37:23;9.20;99.90
21559;DHT22;10940;48.890;8.240;2022-09-30T04:39:48;9.30;99.90
21559;DHT22;10940;48.890;8.240;2022-09-30T04:42:14;9.30;99.90
21559;DHT22;10940;48.890;8.240;2022-09-30T04:44:41;9.30;99.90
21559;DHT22;10940;48.890;8.240;2022-09-30T04:47:07;9.30;99.90
21559;DHT22;10940;48.890;8.240;2022-09-30T04:49:32;9.20;99.90
21559;DHT22;10940;48.890;8.240;2022-09-30T04:51:58;9.20;99.90
21559;DHT22;10940;48.890;8.240;2022-09-30T04:54:23;9.30;99.90
21559;DHT22;10940;48.890;8.240;2022-09-30T04:56:49;9.20;99.90
21559;DHT22;10940;48.890;8.240;2022-09-30T04:59:15;9.30;99.90
21559;DHT22;10940;48.890;8.240;2022-09-30T05:01:40;9.20;99.90
21559;DHT22;10940;48.890;8.240;2022-09-30T05:04:08;9.20;99.90
21559;DHT22;10940;48.890;8.240;2022-09-30T05:06:34;9.20;99.90
21559;DHT22;10940;48.890;8.240;2022-09-30T05:08:59;9.20;99.90
21559;DHT22;10940;48.890;8.240;2022-09-30T05:11:25;9.10;99.90
21559;DHT22;10940;48.890;8.240;2022-09-30T05:13:52;9.00;99.90
21559;DHT22;10940;48.890;8.240;2022-09-30T05:16:17;9.00;99.90
21559;DHT22;10940;48.890;8.240;2022-09-30T05:18:43;9.00;99.90
21559;DHT22;10940;48.890;8.240;2022-09-30T05:21:15;9.00;99.90
21559;DHT22;10940;48.890;8.240;2022-09-30T05:23:41;9.00;99.90
21559;DHT22;10940;48.890;8.240;2022-09-30T05:26:07;9.00;99.90
21559;DHT22;10940;48.890;8.240;2022-09-30T05:28:33;9.00;99.90
21559;DHT22;10940;48.890;8.240;2022-09-30T05:31:01;9.00;99.90
21559;DHT22;10940;48.890;8.240;2022-09-30T05:33:28;9.00;99.90
21559;DHT22;10940;48.890;8.240;2022-09-30T05:35:57;9.00;99.90
21559;DHT22;10940;48.890;8.240;2022-09-30T05:38:23;9.00;99.90
21559;DHT22;10940;48.890;8.240;2022-09-30T05:40:49;9.00;99.90
21559;DHT22;10940;48.890;8.240;2022-09-30T05:43:15;9.10;99.90
21559;DHT22;10940;48.890;8.240;2022-09-30T05:45:40;9.10;99.90
21559;DHT22;10940;48.890;8.240;2022-09-30T05:48:06;9.10;99.90
21559;DHT22;10940;48.890;8.240;2022-09-30T05:50:32;9.20;99.90
21559;DHT22;10940;48.890;8.240;2022-09-30T05:52:57;9.10;99.90
21559;DHT22;10940;48.890;8.240;2022-09-30T05:55:24;9.20;99.90
21559;DHT22;10940;48.890;8.240;2022-09-30T05:57:50;9.10;99.90
21559;DHT22;10940;48.890;8.240;2022-09-30T06:00:17;9.10;99.90
21559;DHT22;10940;48.890;8.240;2022-09-30T06:02:43;9.10;99.90
21559;DHT22;10940;48.890;8.240;2022-09-30T06:05:10;9.20;99.90
21559;DHT22;10940;48.890;8.240;2022-09-30T06:07:36;9.30;99.90
21559;DHT22;10940;48.890;8.240;2022-09-30T06:10:03;9.40;99.90
21559;DHT22;10940;48.890;8.240;2022-09-30T06:12:29;9.30;99.90
21559;DHT22;10940;48.890;8.240;2022-09-30T06:14:55;9.40;99.90
21559;DHT22;10940;48.890;8.240;2022-09-30T06:17:21;9.40;99.90
21559;DHT22;10940;48.890;8.240;2022-09-30T06:19:47;9.40;99.90
21559;DHT22;10940;48.890;8.240;2022-09-30T06:22:15;9.30;99.90
21559;DHT22;10940;48.890;8.240;2022-09-30T06:24:40;9.30;99.90
21559;DHT22;10940;48.890;8.240;2022-09-30T06:27:06;9.40;99.90
21559;DHT22;10940;48.890;8.240;2022-09-30T06:29:32;9.40;99.90
21559;DHT22;10940;48.890;8.240;2022-09-30T06:31:58;9.30;99.90
21559;DHT22;10940;48.890;8.240;2022-09-30T06:34:23;9.30;99.90
21559;DHT22;10940;48.890;8.240;2022-09-30T06:36:49;9.30;99.90
21559;DHT22;10940;48.890;8.240;2022-09-30T06:39:16;9.30;99.90
21559;DHT22;10940;48.890;8.240;2022-09-30T06:41:41;9.30;99.90
21559;DHT22;10940;48.890;8.240;2022-09-30T06:44:09;9.30;99.90
21559;DHT22;10940;48.890;8.240;2022-09-30T06:46:34;9.30;99.90
21559;DHT22;10940;48.890;8.240;2022-09-30T06:49:00;9.40;99.90
21559;DHT22;10940;48.890;8.240;2022-09-30T06:51:28;9.40;99.90
21559;DHT22;10940;48.890;8.240;2022-09-30T06:53:57;9.40;99.90
21559;DHT22;10940;48.890;8.240;2022-09-30T06:56:22;9.40;99.90
21559;DHT22;10940;48.890;8.240;2022-09-30T06:58:48;9.40;99.90
21559;DHT22;10940;48.890;8.240;2022-09-30T07:01:13;9.40;99.90
21559;DHT22;10940;48.890;8.240;2022-09-30T07:03:41;9.40;99.90
21559;DHT22;10940;48.890;8.240;2022-09-30T07:06:08;9.50;99.90
21559;DHT22;10940;48.890;8.240;2022-09-30T07:08:35;9.50;99.90
21559;DHT22;10940;48.890;8.240;2022-09-30T07:11:09;9.60;99.90
21559;DHT22;10940;48.890;8.240;2022-09-30T07:13:45;9.60;99.90
21559;DHT22;10940;48.890;8.240;2022-09-30T07:16:12;9.60;99.90
21559;DHT22;10940;48.890;8.240;2022-09-30T07:18:39;9.70;99.90
21559;DHT22;10940;48.890;8.240;2022-09-30T07:21:07;9.80;99.90
21559;DHT22;10940;48.890;8.240;2022-09-30T07:23:34;9.70;99.90
21559;DHT22;10940;48.890;8.240;2022-09-30T07:26:01;9.80;99.90
21559;DHT22;10940;48.890;8.240;2022-09-30T07:28:31;9.80;99.90
21559;DHT22;10940;48.890;8.240;2022-09-30T07:30:58;9.80;99.90
21559;DHT22;10940;48.890;8.240;2022-09-30T07:33:25;9.80;99.90
21559;DHT22;10940;48.890;8.240;2022-09-30T07:35:55;9.90;99.90
21559;DHT22;10940;48.890;8.240;2022-09-30T07:38:23;10.00;99.90
21559;DHT22;10940;48.890;8.240;2022-09-30T07:40:54;10.10;99.90
21559;DHT22;10940;48.890;8.240;2022-09-30T07:43:21;10.10;99.90
21559;DHT22;10940;48.890;8.240;2022-09-30T07:45:48;10.10;99.90
21559;DHT22;10940;48.890;8.240;2022-09-30T07:48:14;10.20;99.90
21559;DHT22;10940;48.890;8.240;2022-09-30T07:50:59;10.20;99.90
21559;DHT22;10940;48.890;8.240;2022-09-30T07:53:24;10.40;99.90
21559;DHT22;10940;48.890;8.240;2022-09-30T07:55:50;10.50;99.90
21559;DHT22;10940;48.890;8.240;2022-09-30T07:58:16;10.70;99.90
21559;DHT22;10940;48.890;8.240;2022-09-30T08:00:41;10.80;99.90
21559;DHT22;10940;48.890;8.240;2022-09-30T08:03:07;10.90;99.90
21559;DHT22;10940;48.890;8.240;2022-09-30T08:05:38;11.00;99.90
21559;DHT22;10940;48.890;8.240;2022-09-30T08:08:04;11.10;99.90
21559;DHT22;10940;48.890;8.240;2022-09-30T08:10:34;11.10;99.90
21559;DHT22;10940;48.890;8.240;2022-09-30T08:13:00;11.10;99.90
21559;DHT22;10940;48.890;8.240;2022-09-30T08:15:25;11.20;99.90
21559;DHT22;10940;48.890;8.240;2022-09-30T08:17:51;11.20;99.90
21559;DHT22;10940;48.890;8.240;2022-09-30T08:20:16;11.20;99.90
21559;DHT22;10940;48.890;8.240;2022-09-30T08:22:42;11.20;99.90
21559;DHT22;10940;48.890;8.240;2022-09-30T08:25:08;11.10;99.90
21559;DHT22;10940;48.890;8.240;2022-09-30T08:27:33;11.10;99.90
21559;DHT22;10940;48.890;8.240;2022-09-30T08:29:59;11.10;99.90
21559;DHT22;10940;48.890;8.240;2022-09-30T08:32:24;11.10;99.90
21559;DHT22;10940;48.890;8.240;2022-09-30T08:34:53;11.20;99.90
21559;DHT22;10940;48.890;8.240;2022-09-30T08:37:19;11.20;99.90
21559;DHT22;10940;48.890;8.240;2022-09-30T08:39:44;11.30;99.90
21559;DHT22;10940;48.890;8.240;2022-09-30T08:42:30;11.30;99.90
21559;DHT22;10940;48.890;8.240;2022-09-30T08:45:14;11.50;99.90
21559;DHT22;10940;48.890;8.240;2022-09-30T08:50:59;11.60;99.90
21559;DHT22;10940;48.890;8.240;2022-09-30T08:53:30;11.70;99.90
21559;DHT22;10940;48.890;8.240;2022-09-30T08:55:58;11.80;99.90
21559;DHT22;10940;48.890;8.240;2022-09-30T08:58:38;11.90;99.90
21559;DHT22;10940;48.890;8.240;2022-09-30T09:02:25;11.80;99.90
21559;DHT22;10940;48.890;8.240;2022-09-30T09:04:19;11.70;99.90
21559;DHT22;10940;48.890;8.240;2022-09-30T09:07:01;11.70;99.90
21559;DHT22;10940;48.890;8.240;2022-09-30T09:09:42;11.80;99.90
21559;DHT22;10940;48.890;8.240;2022-09-30T09:18:07;11.90;99.90
21559;DHT22;10940;48.890;8.240;2022-09-30T09:20:55;11.90;99.90
21559;DHT22;10940;48.890;8.240;2022-09-30T09:23:28;12.00;99.90
21559;DHT22;10940;48.890;8.240;2022-09-30T09:25:55;12.10;99.90
21559;DHT22;10940;48.890;8.240;2022-09-30T09:31:07;12.30;99.90
21559;DHT22;10940;48.890;8.240;2022-09-30T09:33:45;12.50;99.90
21559;DHT22;10940;48.890;8.240;2022-09-30T09:44:59;13.30;99.90
21559;DHT22;10940;48.890;8.240;2022-09-30T09:47:26;13.30;99.90
21559;DHT22;10940;48.890;8.240;2022-09-30T09:49:57;13.50;99.90
21559;DHT22;10940;48.890;8.240;2022-09-30T09:55:02;13.70;99.90
21559;DHT22;10940;48.890;8.240;2022-09-30T09:57:28;13.70;99.90
21559;DHT22;10940;48.890;8.240;2022-09-30T10:00:02;13.90;99.90
21559;DHT22;10940;48.890;8.240;2022-09-30T10:05:34;14.00;99.90
21559;DHT22;10940;48.890;8.240;2022-09-30T10:08:17;14.10;99.90
21559;DHT22;10940;48.890;8.240;2022-09-30T10:10:54;14.30;99.90
21559;DHT22;10940;48.890;8.240;2022-09-30T10:13:40;14.30;99.90
21559;DHT22;10940;48.890;8.240;2022-09-30T10:16:08;14.30;99.90
21559;DHT22;10940;48.890;8.240;2022-09-30T10:18:49;14.40;99.90
21559;DHT22;10940;48.890;8.240;2022-09-30T10:21:21;14.40;99.90
21559;DHT22;10940;48.890;8.240;2022-09-30T10:23:47;14.20;99.90
21559;DHT22;10940;48.890;8.240;2022-09-30T10:28:52;13.90;99.90
21559;DHT22;10940;48.890;8.240;2022-09-30T10:31:28;13.90;99.90
21559;DHT22;10940;48.890;8.240;2022-09-30T10:36:31;13.90;99.90
21559;DHT22;10940;48.890;8.240;2022-09-30T10:39:07;14.00;99.90
21559;DHT22;10940;48.890;8.240;2022-09-30T10:41:37;14.10;99.90
21559;DHT22;10940;48.890;8.240;2022-09-30T10:44:06;14.20;99.90
21559;DHT22;10940;48.890;8.240;2022-09-30T10:46:38;14.20;99.90
21559;DHT22;10940;48.890;8.240;2022-09-30T10:49:26;14.20;99.90
21559;DHT22;10940;48.890;8.240;2022-09-30T10:51:54;14.20;99.90
21559;DHT22;10940;48.890;8.240;2022-09-30T10:57:11;14.30;99.90
21559;DHT22;10940;48.890;8.240;2022-09-30T10:59:38;14.50;99.90
21559;DHT22;10940;48.890;8.240;2022-09-30T11:02:29;14.60;99.90
21559;DHT22;10940;48.890;8.240;2022-09-30T11:05:04;14.70;99.90
21559;DHT22;10940;48.890;8.240;2022-09-30T11:07:52;14.80;99.90
21559;DHT22;10940;48.890;8.240;2022-09-30T11:13:18;14.80;99.90
21559;DHT22;10940;48.890;8.240;2022-09-30T11:21:50;14.80;99.90
21559;DHT22;10940;48.890;8.240;2022-09-30T11:24:34;14.90;99.90
21559;DHT22;10940;48.890;8.240;2022-09-30T11:40:38;15.30;99.90
21559;DHT22;10940;48.890;8.240;2022-09-30T11:52:01;15.30;99.90
21559;DHT22;10940;48.890;8.240;2022-09-30T11:57:43;15.40;99.90
21559;DHT22;10940;48.890;8.240;2022-09-30T12:00:18;15.60;99.90
21559;DHT22;10940;48.890;8.240;2022-09-30T12:02:50;15.70;99.90
21559;DHT22;10940;48.890;8.240;2022-09-30T12:06:03;15.90;99.90
21559;DHT22;10940;48.890;8.240;2022-09-30T12:08:36;16.10;99.90
21559;DHT22;10940;48.890;8.240;2022-09-30T12:11:12;16.30;99.90
21559;DHT22;10940;48.890;8.240;2022-09-30T12:13:54;16.50;99.90
21559;DHT22;10940;48.890;8.240;2022-09-30T12:16:27;16.60;99.90
21559;DHT22;10940;48.890;8.240;2022-09-30T12:19:02;16.60;99.90
21559;DHT22;10940;48.890;8.240;2022-09-30T12:21:37;16.50;99.90
21559;DHT22;10940;48.890;8.240;2022-09-30T12:24:19;16.60;99.90
21559;DHT22;10940;48.890;8.240;2022-09-30T12:26:48;16.80;99.90
21559;DHT22;10940;48.890;8.240;2022-09-30T12:29:20;16.80;99.90
21559;DHT22;10940;48.890;8.240;2022-09-30T12:48:54;17.80;99.90
21559;DHT22;10940;48.890;8.240;2022-09-30T12:51:35;18.00;99.90
21559;DHT22;10940;48.890;8.240;2022-09-30T12:56:41;17.70;99.90
21559;DHT22;10940;48.890;8.240;2022-09-30T12:59:07;17.60;99.90
21559;DHT22;10940;48.890;8.240;2022-09-30T13:01:38;17.80;99.90
21559;DHT22;10940;48.890;8.240;2022-09-30T13:11:41;18.30;99.90
21559;DHT22;10940;48.890;8.240;2022-09-30T13:14:35;18.10;99.90
21559;DHT22;10940;48.890;8.240;2022-09-30T13:27:46;17.30;99.90
21559;DHT22;10940;48.890;8.240;2022-09-30T13:32:43;17.20;99.90
21559;DHT22;10940;48.890;8.240;2022-09-30T13:40:50;17.30;99.90
21559;DHT22;10940;48.890;8.240;2022-09-30T13:43:25;17.40;99.90
21559;DHT22;10940;48.890;8.240;2022-09-30T13:45:53;17.60;99.90
21559;DHT22;10940;48.890;8.240;2022-09-30T13:48:33;17.80;99.90
21559;DHT22;10940;48.890;8.240;2022-09-30T13:51:05;18.00;99.90
21559;DHT22;10940;48.890;8.240;2022-09-30T13:53:47;18.00;99.90
21559;DHT22;10940;48.890;8.240;2022-09-30T13:56:28;18.20;99.90
21559;DHT22;10940;48.890;8.240;2022-09-30T14:10:22;17.40;99.90
21559;DHT22;10940;48.890;8.240;2022-09-30T14:13:10;17.00;99.90
21559;DHT22;10940;48.890;8.240;2022-09-30T14:16:05;16.60;99.90
21559;DHT22;10940;48.890;8.240;2022-09-30T14:21:33;16.00;99.90
21559;DHT22;10940;48.890;8.240;2022-09-30T14:24:10;15.90;99.90
21559;DHT22;10940;48.890;8.240;2022-09-30T14:31:43;15.70;99.90
21559;DHT22;10940;48.890;8.240;2022-09-30T14:34:11;15.60;99.90
21559;DHT22;10940;48.890;8.240;2022-09-30T14:36:39;15.60;99.90
21559;DHT22;10940;48.890;8.240;2022-09-30T14:39:13;15.50;99.90
21559;DHT22;10940;48.890;8.240;2022-09-30T14:41:57;15.40;99.90
21559;DHT22;10940;48.890;8.240;2022-09-30T14:44:25;15.40;99.90
21559;DHT22;10940;48.890;8.240;2022-09-30T14:46:52;15.30;99.90
21559;DHT22;10940;48.890;8.240;2022-09-30T14:49:27;15.40;99.90
21559;DHT22;10940;48.890;8.240;2022-09-30T14:51:58;15.30;99.90
21559;DHT22;10940;48.890;8.240;2022-09-30T14:54:29;15.20;99.90
21559;DHT22;10940;48.890;8.240;2022-09-30T14:56:57;15.20;99.90
21559;DHT22;10940;48.890;8.240;2022-09-30T14:59:27;15.20;99.90
21559;DHT22;10940;48.890;8.240;2022-09-30T15:02:03;15.20;99.90
21559;DHT22;10940;48.890;8.240;2022-09-30T15:04:39;15.10;99.90
21559;DHT22;10940;48.890;8.240;2022-09-30T15:07:11;15.10;99.90
21559;DHT22;10940;48.890;8.240;2022-09-30T15:09:42;15.10;99.90
21559;DHT22;10940;48.890;8.240;2022-09-30T15:12:21;15.00;99.90
21559;DHT22;10940;48.890;8.240;2022-09-30T15:14:58;15.10;99.90
21559;DHT22;10940;48.890;8.240;2022-09-30T15:17:28;15.10;99.90
21559;DHT22;10940;48.890;8.240;2022-09-30T15:19:55;15.10;99.90
21559;DHT22;10940;48.890;8.240;2022-09-30T15:22:26;15.10;99.90
21559;DHT22;10940;48.890;8.240;2022-09-30T15:24:54;15.10;99.90
21559;DHT22;10940;48.890;8.240;2022-09-30T15:27:28;15.10;99.90
21559;DHT22;10940;48.890;8.240;2022-09-30T15:29:59;15.00;99.90
21559;DHT22;10940;48.890;8.240;2022-09-30T15:32:28;15.10;99.90
21559;DHT22;10940;48.890;8.240;2022-09-30T15:34:54;15.20;99.90
21559;DHT22;10940;48.890;8.240;2022-09-30T15:37:24;15.30;99.90
21559;DHT22;10940;48.890;8.240;2022-09-30T15:39:51;15.40;99.90
21559;DHT22;10940;48.890;8.240;2022-09-30T15:42:43;15.40;99.90
21559;DHT22;10940;48.890;8.240;2022-09-30T15:47:57;15.40;99.90
21559;DHT22;10940;48.890;8.240;2022-09-30T15:50:40;15.40;99.90
21559;DHT22;10940;48.890;8.240;2022-09-30T15:56:34;15.20;99.90
21559;DHT22;10940;48.890;8.240;2022-09-30T15:59:10;15.10;99.90
21559;DHT22;10940;48.890;8.240;2022-09-30T16:01:43;15.10;99.90
21559;DHT22;10940;48.890;8.240;2022-09-30T16:04:30;15.10;99.90
21559;DHT22;10940;48.890;8.240;2022-09-30T16:06:59;15.20;99.90
21559;DHT22;10940;48.890;8.240;2022-09-30T16:09:37;15.20;99.90
21559;DHT22;10940;48.890;8.240;2022-09-30T16:12:14;15.10;99.90
21559;DHT22;10940;48.890;8.240;2022-09-30T16:18:27;15.00;99.90
21559;DHT22;10940;48.890;8.240;2022-09-30T16:21:04;14.90;99.90
21559;DHT22;10940;48.890;8.240;2022-09-30T16:23:36;14.80;99.90
21559;DHT22;10940;48.890;8.240;2022-09-30T16:28:41;14.70;99.90
21559;DHT22;10940;48.890;8.240;2022-09-30T16:31:08;14.60;99.90
21559;DHT22;10940;48.890;8.240;2022-09-30T16:33:37;14.50;99.90
21559;DHT22;10940;48.890;8.240;2022-09-30T16:36:08;14.30;99.90
21559;DHT22;10940;48.890;8.240;2022-09-30T16:38:34;14.30;99.90
21559;DHT22;10940;48.890;8.240;2022-09-30T16:41:01;14.20;99.90
21559;DHT22;10940;48.890;8.240;2022-09-30T16:43:28;14.20;99.90
21559;DHT22;10940;48.890;8.240;2022-09-30T16:45:55;14.10;99.90
21559;DHT22;10940;48.890;8.240;2022-09-30T16:48:21;14.10;99.90
21559;DHT22;10940;48.890;8.240;2022-09-30T16:50:49;14.10;99.90
21559;DHT22;10940;48.890;8.240;2022-09-30T16:53:17;14.00;99.90
21559;DHT22;10940;48.890;8.240;2022-09-30T16:55:43;13.90;99.90
21559;DHT22;10940;48.890;8.240;2022-09-30T16:58:11;13.80;99.90
21559;DHT22;10940;48.890;8.240;2022-09-30T17:00:39;13.70;99.90
21559;DHT22;10940;48.890;8.240;2022-09-30T17:03:06;13.70;99.90
21559;DHT22;10940;48.890;8.240;2022-09-30T17:05:32;13.60;99.90
21559;DHT22;10940;48.890;8.240;2022-09-30T17:07:58;13.60;99.90
21559;DHT22;10940;48.890;8.240;2022-09-30T17:10:31;13.50;99.90
21559;DHT22;10940;48.890;8.240;2022-09-30T17:12:59;13.50;99.90
21559;DHT22;10940;48.890;8.240;2022-09-30T17:15:27;13.50;99.90
21559;DHT22;10940;48.890;8.240;2022-09-30T17:17:53;13.40;99.90
21559;DHT22;10940;48.890;8.240;2022-09-30T17:20:20;13.50;99.90
21559;DHT22;10940;48.890;8.240;2022-09-30T17:22:45;13.40;99.90
21559;DHT22;10940;48.890;8.240;2022-09-30T17:25:11;13.30;99.90
21559;DHT22;10940;48.890;8.240;2022-09-30T17:27:38;13.20;99.90
21559;DHT22;10940;48.890;8.240;2022-09-30T17:30:04;13.10;99.90
21559;DHT22;10940;48.890;8.240;2022-09-30T17:32:31;13.10;99.90
21559;DHT22;10940;48.890;8.240;2022-09-30T17:34:56;13.10;99.90
21559;DHT22;10940;48.890;8.240;2022-09-30T17:37:22;13.10;99.90
21559;DHT22;10940;48.890;8.240;2022-09-30T17:39:48;13.00;99.90
21559;DHT22;10940;48.890;8.240;2022-09-30T17:42:14;13.00;99.90
21559;DHT22;10940;48.890;8.240;2022-09-30T17:44:59;13.00;99.90
21559;DHT22;10940;48.890;8.240;2022-09-30T17:47:25;12.90;99.90
21559;DHT22;10940;48.890;8.240;2022-09-30T17:49:51;12.80;99.90
21559;DHT22;10940;48.890;8.240;2022-09-30T17:52:17;12.80;99.90
21559;DHT22;10940;48.890;8.240;2022-09-30T17:54:43;12.80;99.90
21559;DHT22;10940;48.890;8.240;2022-09-30T17:57:09;12.70;99.90
21559;DHT22;10940;48.890;8.240;2022-09-30T17:59:35;12.60;99.90
21559;DHT22;10940;48.890;8.240;2022-09-30T18:02:00;12.50;99.90
21559;DHT22;10940;48.890;8.240;2022-09-30T18:04:26;12.40;99.90
21559;DHT22;10940;48.890;8.240;2022-09-30T18:06:53;12.40;99.90
21559;DHT22;10940;48.890;8.240;2022-09-30T18:09:19;12.30;99.90
21559;DHT22;10940;48.890;8.240;2022-09-30T18:11:45;12.20;99.90
21559;DHT22;10940;48.890;8.240;2022-09-30T18:14:11;12.20;99.90
21559;DHT22;10940;48.890;8.240;2022-09-30T18:16:37;12.00;99.90
21559;DHT22;10940;48.890;8.240;2022-09-30T18:19:04;12.00;99.90
21559;DHT22;10940;48.890;8.240;2022-09-30T18:21:32;12.00;99.90
21559;DHT22;10940;48.890;8.240;2022-09-30T18:23:58;11.90;99.90
21559;DHT22;10940;48.890;8.240;2022-09-30T18:26:26;12.00;99.90
21559;DHT22;10940;48.890;8.240;2022-09-30T18:28:55;12.00;99.90
21559;DHT22;10940;48.890;8.240;2022-09-30T18:31:23;12.00;99.90
21559;DHT22;10940;48.890;8.240;2022-09-30T18:33:59;12.00;99.90
21559;DHT22;10940;48.890;8.240;2022-09-30T18:36:26;12.00;99.90
21559;DHT22;10940;48.890;8.240;2022-09-30T18:38:54;12.00;99.90
21559;DHT22;10940;48.890;8.240;2022-09-30T18:41:25;11.90;99.90
21559;DHT22;10940;48.890;8.240;2022-09-30T18:43:52;11.90;99.90
21559;DHT22;10940;48.890;8.240;2022-09-30T18:46:21;11.90;99.90
21559;DHT22;10940;48.890;8.240;2022-09-30T18:48:48;11.90;99.90
21559;DHT22;10940;48.890;8.240;2022-09-30T18:51:14;11.90;99.90
21559;DHT22;10940;48.890;8.240;2022-09-30T18:53:41;11.90;99.90
21559;DHT22;10940;48.890;8.240;2022-09-30T18:56:07;11.80;99.90
21559;DHT22;10940;48.890;8.240;2022-09-30T18:58:33;11.80;99.90